createdAt,value
2017-03-16T00:00:03.740Z,0
2017-03-16T00:01:12.440Z,0
2017-03-16T00:02:21.200Z,0
2017-03-16T00:03:29.958Z,0
2017-03-16T00:04:38.722Z,0
2017-03-16T00:05:47.429Z,0
2017-03-16T00:06:56.193Z,0
2017-03-16T00:08:04.882Z,0
2017-03-16T00:09:13.878Z,0
2017-03-16T00:10:23.121Z,0
2017-03-16T00:11:31.881Z,0
2017-03-16T00:12:40.942Z,0
2017-03-16T00:13:49.945Z,0
2017-03-16T00:14:58.709Z,0
2017-03-16T00:16:07.673Z,0
2017-03-16T00:17:16.430Z,0
2017-03-16T00:18:25.183Z,0
2017-03-16T00:19:33.938Z,0
2017-03-16T00:20:42.700Z,0
2017-03-16T00:21:51.465Z,0
2017-03-16T00:23:00.222Z,0
2017-03-16T00:24:08.984Z,0
2017-03-16T00:25:17.747Z,0
2017-03-16T00:26:26.507Z,0
2017-03-16T00:27:35.198Z,0
2017-03-16T00:28:43.893Z,0
2017-03-16T00:29:52.651Z,0
2017-03-16T00:31:01.409Z,0
2017-03-16T00:32:10.179Z,0
2017-03-16T00:33:18.956Z,0
2017-03-16T00:34:27.715Z,0
2017-03-16T00:35:36.477Z,0
2017-03-16T00:36:45.246Z,0
2017-03-16T00:37:54.005Z,0
2017-03-16T00:39:02.765Z,0
2017-03-16T00:40:11.525Z,0
2017-03-16T00:41:20.893Z,0
2017-03-16T00:42:29.583Z,0
2017-03-16T00:43:38.339Z,0
2017-03-16T00:44:47.093Z,0
2017-03-16T00:45:55.853Z,0
2017-03-16T00:47:04.627Z,0
2017-03-16T00:48:13.592Z,0
2017-03-16T00:49:22.362Z,0
2017-03-16T00:50:31.056Z,0
2017-03-16T00:51:40.419Z,0
2017-03-16T00:52:49.181Z,0
2017-03-16T00:53:57.943Z,0
2017-03-16T00:55:06.708Z,0
2017-03-16T00:56:16.078Z,0
2017-03-16T00:57:25.375Z,0
2017-03-16T00:58:34.139Z,0
2017-03-16T00:59:43.459Z,0
2017-03-16T01:00:52.768Z,0
2017-03-16T01:02:01.830Z,0
2017-03-16T01:03:10.522Z,0
2017-03-16T01:04:19.285Z,0
2017-03-16T01:05:28.059Z,0
2017-03-16T01:06:36.820Z,0
2017-03-16T01:07:45.580Z,0
2017-03-16T01:08:54.334Z,0
2017-03-16T01:10:03.026Z,0
2017-03-16T01:11:11.792Z,0
2017-03-16T01:12:20.554Z,0
2017-03-16T01:13:29.615Z,0
2017-03-16T01:14:38.648Z,0
2017-03-16T01:15:47.419Z,0
2017-03-16T01:16:56.110Z,0
2017-03-16T01:18:04.802Z,0
2017-03-16T01:19:14.099Z,0
2017-03-16T01:20:23.165Z,0
2017-03-16T01:21:32.257Z,0
2017-03-16T01:22:41.018Z,0
2017-03-16T01:23:50.086Z,0
2017-03-16T01:24:59.392Z,0
2017-03-16T01:26:08.084Z,0
2017-03-16T01:27:16.790Z,0
2017-03-16T01:28:25.488Z,0
2017-03-16T01:29:34.485Z,0
2017-03-16T01:30:43.852Z,0
2017-03-16T01:31:52.911Z,0
2017-03-16T01:33:01.824Z,0
2017-03-16T01:34:10.589Z,0
2017-03-16T01:35:19.354Z,0
2017-03-16T01:36:28.113Z,0
2017-03-16T01:37:36.803Z,0
2017-03-16T01:38:45.869Z,0
2017-03-16T01:39:55.167Z,0
2017-03-16T01:41:04.233Z,0
2017-03-16T01:42:12.924Z,0
2017-03-16T01:43:21.921Z,0
2017-03-16T01:44:30.974Z,0
2017-03-16T01:45:40.048Z,0
2017-03-16T01:46:49.044Z,0
2017-03-16T01:47:57.796Z,0
2017-03-16T01:49:06.553Z,0
2017-03-16T01:50:15.244Z,0
2017-03-16T01:51:24.545Z,0
2017-03-16T01:52:33.906Z,0
2017-03-16T01:53:43.287Z,0
2017-03-16T01:54:52.039Z,0
2017-03-16T01:56:01.101Z,0
2017-03-16T01:57:10.009Z,0
2017-03-16T01:58:19.314Z,0
2017-03-16T01:59:28.395Z,0
2017-03-16T02:00:37.458Z,0
2017-03-16T02:01:46.525Z,0
2017-03-16T02:02:55.893Z,0
2017-03-16T02:04:05.613Z,0
2017-03-16T02:05:14.375Z,0
2017-03-16T02:06:23.372Z,0
2017-03-16T02:07:32.372Z,0
2017-03-16T02:08:41.071Z,0
2017-03-16T02:09:50.437Z,0
2017-03-16T02:10:59.506Z,0
2017-03-16T02:12:08.879Z,0
2017-03-16T02:13:18.236Z,0
2017-03-16T02:14:27.530Z,0
2017-03-16T02:15:36.294Z,0
2017-03-16T02:16:45.060Z,0
2017-03-16T02:17:54.118Z,0
2017-03-16T02:19:03.628Z,0
2017-03-16T02:20:12.943Z,0
2017-03-16T02:21:21.939Z,0
2017-03-16T02:22:30.699Z,0
2017-03-16T02:23:39.468Z,0
2017-03-16T02:24:48.533Z,0
2017-03-16T02:25:57.285Z,0
2017-03-16T02:27:07.267Z,0
2017-03-16T02:28:15.958Z,0
2017-03-16T02:29:25.023Z,0
2017-03-16T02:30:33.772Z,0
2017-03-16T02:31:42.842Z,0
2017-03-16T02:32:51.911Z,0
2017-03-16T02:34:01.009Z,0
2017-03-16T02:35:10.606Z,0
2017-03-16T02:36:19.295Z,0
2017-03-16T02:37:28.289Z,0
2017-03-16T02:38:37.055Z,0
2017-03-16T02:39:46.423Z,0
2017-03-16T02:40:55.190Z,0
2017-03-16T02:42:04.260Z,0
2017-03-16T02:43:13.627Z,0
2017-03-16T02:44:22.331Z,0
2017-03-16T02:45:31.332Z,0
2017-03-16T02:46:40.097Z,0
2017-03-16T02:47:50.076Z,0
2017-03-16T02:48:58.834Z,0
2017-03-16T02:50:08.361Z,0
2017-03-16T02:51:17.425Z,0
2017-03-16T02:52:26.423Z,0
2017-03-16T02:53:35.480Z,0
2017-03-16T02:54:44.243Z,0
2017-03-16T02:55:53.004Z,0
2017-03-16T02:57:02.374Z,0
2017-03-16T02:58:12.037Z,0
2017-03-16T02:59:21.093Z,0
2017-03-16T03:00:30.093Z,0
2017-03-16T03:01:38.857Z,0
2017-03-16T03:02:48.234Z,0
2017-03-16T03:03:57.228Z,0
2017-03-16T03:05:06.438Z,0
2017-03-16T03:06:15.202Z,0
2017-03-16T03:07:23.961Z,0
2017-03-16T03:08:33.565Z,0
2017-03-16T03:09:42.859Z,0
2017-03-16T03:10:51.923Z,0
2017-03-16T03:12:00.931Z,0
2017-03-16T03:13:09.693Z,0
2017-03-16T03:14:18.756Z,0
2017-03-16T03:15:27.447Z,0
2017-03-16T03:16:36.508Z,0
2017-03-16T03:17:45.876Z,0
2017-03-16T03:18:55.234Z,0
2017-03-16T03:20:03.993Z,0
2017-03-16T03:21:12.987Z,0
2017-03-16T03:22:21.750Z,0
2017-03-16T03:23:30.816Z,0
2017-03-16T03:24:39.811Z,0
2017-03-16T03:25:48.577Z,0
2017-03-16T03:26:57.645Z,0
2017-03-16T03:28:06.753Z,0
2017-03-16T03:29:16.429Z,0
2017-03-16T03:30:25.802Z,0
2017-03-16T03:31:34.574Z,0
2017-03-16T03:32:43.630Z,0
2017-03-16T03:33:52.633Z,0
2017-03-16T03:35:01.520Z,0
2017-03-16T03:36:10.888Z,0
2017-03-16T03:37:19.956Z,0
2017-03-16T03:38:29.329Z,0
2017-03-16T03:39:38.258Z,0
2017-03-16T03:40:47.312Z,0
2017-03-16T03:41:56.389Z,0
2017-03-16T03:43:05.765Z,0
2017-03-16T03:44:14.824Z,0
2017-03-16T03:45:23.886Z,0
2017-03-16T03:46:33.202Z,0
2017-03-16T03:47:42.570Z,0
2017-03-16T03:48:51.634Z,0
2017-03-16T03:50:01.001Z,0
2017-03-16T03:51:10.057Z,0
2017-03-16T03:52:18.814Z,0
2017-03-16T03:53:28.174Z,0
2017-03-16T03:54:37.236Z,0
2017-03-16T03:55:45.986Z,0
2017-03-16T03:56:54.740Z,0
2017-03-16T03:58:03.498Z,0
2017-03-16T03:59:12.566Z,0
2017-03-16T04:00:21.862Z,0
2017-03-16T04:01:30.614Z,0
2017-03-16T04:02:39.611Z,0
2017-03-16T04:03:48.668Z,0
2017-03-16T04:04:57.743Z,0
2017-03-16T04:06:06.738Z,0
2017-03-16T04:07:15.691Z,0
2017-03-16T04:08:24.686Z,0
2017-03-16T04:09:33.743Z,0
2017-03-16T04:10:43.107Z,0
2017-03-16T04:11:51.864Z,0
2017-03-16T04:13:01.235Z,0
2017-03-16T04:14:10.905Z,0
2017-03-16T04:15:19.962Z,0
2017-03-16T04:16:28.651Z,0
2017-03-16T04:17:37.707Z,0
2017-03-16T04:18:46.466Z,0
2017-03-16T04:19:55.534Z,0
2017-03-16T04:21:04.301Z,0
2017-03-16T04:22:13.364Z,0
2017-03-16T04:23:22.631Z,0
2017-03-16T04:24:31.700Z,0
2017-03-16T04:25:40.694Z,0
2017-03-16T04:26:49.464Z,0
2017-03-16T04:27:58.529Z,0
2017-03-16T04:29:07.223Z,0
2017-03-16T04:30:16.290Z,0
2017-03-16T04:31:25.349Z,0
2017-03-16T04:32:34.107Z,0
2017-03-16T04:33:42.861Z,0
2017-03-16T04:34:51.927Z,0
2017-03-16T04:36:00.684Z,0
2017-03-16T04:37:09.749Z,0
2017-03-16T04:38:18.816Z,0
2017-03-16T04:39:27.870Z,0
2017-03-16T04:40:36.924Z,0
2017-03-16T04:41:45.676Z,0
2017-03-16T04:42:54.737Z,0
2017-03-16T04:44:03.797Z,0
2017-03-16T04:45:12.552Z,0
2017-03-16T04:46:21.252Z,0
2017-03-16T04:47:30.012Z,0
2017-03-16T04:48:39.373Z,0
2017-03-16T04:49:48.337Z,0
2017-03-16T04:50:57.410Z,0
2017-03-16T04:52:06.177Z,0
2017-03-16T04:53:14.931Z,0
2017-03-16T04:54:23.690Z,0
2017-03-16T04:55:33.056Z,0
2017-03-16T04:56:41.821Z,0
2017-03-16T04:57:50.585Z,0
2017-03-16T04:58:59.645Z,0
2017-03-16T05:00:08.704Z,0
2017-03-16T05:01:17.657Z,0
2017-03-16T05:02:27.355Z,0
2017-03-16T05:03:36.120Z,0
2017-03-16T05:04:44.869Z,0
2017-03-16T05:05:53.629Z,0
2017-03-16T05:07:02.384Z,0
2017-03-16T05:08:12.067Z,0
2017-03-16T05:09:21.135Z,0
2017-03-16T05:10:30.199Z,0
2017-03-16T05:11:38.962Z,0
2017-03-16T05:12:48.569Z,0
2017-03-16T05:13:58.593Z,0
2017-03-16T05:15:07.965Z,0
2017-03-16T05:16:16.731Z,0
2017-03-16T05:17:25.729Z,0
2017-03-16T05:18:35.667Z,0
2017-03-16T05:19:45.311Z,0
2017-03-16T05:20:54.066Z,0
2017-03-16T05:22:03.142Z,0
2017-03-16T05:23:12.819Z,0
2017-03-16T05:24:22.424Z,0
2017-03-16T05:25:31.788Z,0
2017-03-16T05:26:41.149Z,0
2017-03-16T05:27:50.227Z,0
2017-03-16T05:28:59.550Z,0
2017-03-16T05:30:08.611Z,0
2017-03-16T05:31:17.373Z,0
2017-03-16T05:32:26.440Z,0
2017-03-16T05:33:36.414Z,0
2017-03-16T05:34:45.115Z,0
2017-03-16T05:35:54.168Z,0
2017-03-16T05:37:03.233Z,0
2017-03-16T05:38:12.300Z,0
2017-03-16T05:39:21.667Z,0
2017-03-16T05:40:31.029Z,0
2017-03-16T05:41:39.790Z,0
2017-03-16T05:42:49.766Z,0
2017-03-16T05:43:58.837Z,0
2017-03-16T05:45:08.461Z,0
2017-03-16T05:46:17.223Z,0
2017-03-16T05:47:26.286Z,0
2017-03-16T05:48:36.194Z,0
2017-03-16T05:49:45.261Z,0
2017-03-16T05:50:54.320Z,0
2017-03-16T05:52:03.381Z,0
2017-03-16T05:53:12.078Z,0
2017-03-16T05:54:21.383Z,0
2017-03-16T05:55:30.447Z,0
2017-03-16T05:56:39.210Z,0
2017-03-16T05:57:48.590Z,0
2017-03-16T05:58:58.264Z,0
2017-03-16T06:00:08.015Z,0
2017-03-16T06:01:17.690Z,0
2017-03-16T06:02:26.389Z,0
2017-03-16T06:03:35.445Z,0
2017-03-16T06:04:45.052Z,0
2017-03-16T06:05:54.049Z,0
2017-03-16T06:07:03.418Z,0
2017-03-16T06:08:12.570Z,0
2017-03-16T06:09:21.575Z,0
2017-03-16T06:10:31.246Z,0
2017-03-16T06:11:39.942Z,0
2017-03-16T06:12:49.013Z,0
2017-03-16T06:13:59.270Z,0
2017-03-16T06:15:08.288Z,0
2017-03-16T06:16:17.049Z,0
2017-03-16T06:17:25.809Z,0
2017-03-16T06:18:35.189Z,0
2017-03-16T06:19:44.242Z,5
2017-03-16T06:20:53.605Z,5
2017-03-16T06:22:02.677Z,5
2017-03-16T06:23:12.070Z,5
2017-03-16T06:24:21.757Z,5
2017-03-16T06:25:31.029Z,5
2017-03-16T06:26:39.790Z,5
2017-03-16T06:27:48.861Z,5
2017-03-16T06:28:57.939Z,5
2017-03-16T06:30:07.002Z,5
2017-03-16T06:31:15.696Z,5
2017-03-16T06:32:24.458Z,5
2017-03-16T06:33:33.463Z,5
2017-03-16T06:34:42.532Z,5
2017-03-16T06:35:51.528Z,5
2017-03-16T06:37:00.291Z,5
2017-03-16T06:38:09.290Z,5
2017-03-16T06:39:18.296Z,5
2017-03-16T06:40:27.361Z,5
2017-03-16T06:41:36.359Z,5
2017-03-16T06:42:46.641Z,5
2017-03-16T06:43:56.008Z,5
2017-03-16T06:45:05.080Z,5
2017-03-16T06:46:14.146Z,5
2017-03-16T06:47:24.047Z,5
2017-03-16T06:48:33.720Z,10
2017-03-16T06:49:43.286Z,10
2017-03-16T06:50:52.587Z,10
2017-03-16T06:52:01.358Z,10
2017-03-16T06:53:10.128Z,10
2017-03-16T06:54:19.457Z,15
2017-03-16T06:55:28.151Z,15
2017-03-16T06:56:37.222Z,15
2017-03-16T06:57:46.895Z,20
2017-03-16T06:58:56.871Z,30
2017-03-16T07:00:06.257Z,50
2017-03-16T07:01:15.030Z,65
2017-03-16T07:02:24.103Z,90
2017-03-16T07:03:33.771Z,110
2017-03-16T07:04:43.445Z,120
2017-03-16T07:05:52.513Z,130
2017-03-16T07:07:01.825Z,140
2017-03-16T07:08:10.519Z,155
2017-03-16T07:09:19.892Z,150
2017-03-16T07:10:28.889Z,150
2017-03-16T07:11:37.953Z,145
2017-03-16T07:12:47.634Z,150
2017-03-16T07:13:56.398Z,145
2017-03-16T07:15:05.773Z,160
2017-03-16T07:16:14.531Z,195
2017-03-16T07:17:23.498Z,200
2017-03-16T07:18:32.187Z,210
2017-03-16T07:19:41.561Z,220
2017-03-16T07:20:50.628Z,220
2017-03-16T07:22:00.272Z,215
2017-03-16T07:23:09.340Z,230
2017-03-16T07:24:18.716Z,240
2017-03-16T07:25:28.089Z,245
2017-03-16T07:26:36.853Z,245
2017-03-16T07:27:46.137Z,245
2017-03-16T07:28:55.813Z,255
2017-03-16T07:30:04.780Z,240
2017-03-16T07:31:13.473Z,285
2017-03-16T07:32:22.470Z,275
2017-03-16T07:33:31.167Z,175
2017-03-16T07:34:40.228Z,65
2017-03-16T07:35:48.984Z,50
2017-03-16T07:36:58.060Z,50
2017-03-16T07:38:07.370Z,50
2017-03-16T07:39:17.348Z,50
2017-03-16T07:40:26.718Z,45
2017-03-16T07:41:36.085Z,45
2017-03-16T07:42:45.456Z,40
2017-03-16T07:43:54.462Z,40
2017-03-16T07:45:04.094Z,40
2017-03-16T07:46:13.157Z,40
2017-03-16T07:47:21.915Z,40
2017-03-16T07:48:31.279Z,40
2017-03-16T07:49:40.039Z,40
2017-03-16T07:50:48.806Z,40
2017-03-16T07:51:57.502Z,40
2017-03-16T07:53:06.868Z,40
2017-03-16T07:54:15.940Z,40
2017-03-16T07:55:25.313Z,40
2017-03-16T07:56:34.072Z,40
2017-03-16T07:57:43.447Z,40
2017-03-16T07:58:53.161Z,40
2017-03-16T08:00:02.537Z,40
2017-03-16T08:01:11.302Z,40
2017-03-16T08:02:20.072Z,40
2017-03-16T08:03:30.001Z,40
2017-03-16T08:04:39.578Z,40
2017-03-16T08:05:48.951Z,40
2017-03-16T08:06:57.709Z,40
2017-03-16T08:08:07.095Z,40
2017-03-16T08:09:16.767Z,40
2017-03-16T08:10:26.130Z,40
2017-03-16T08:11:35.201Z,40
2017-03-16T08:12:43.966Z,40
2017-03-16T08:13:52.733Z,40
2017-03-16T08:15:02.111Z,40
2017-03-16T08:16:10.874Z,40
2017-03-16T08:17:19.935Z,40
2017-03-16T08:18:29.314Z,40
2017-03-16T08:19:38.691Z,40
2017-03-16T08:20:47.754Z,40
2017-03-16T08:21:57.070Z,40
2017-03-16T08:23:06.403Z,40
2017-03-16T08:24:15.459Z,40
2017-03-16T08:25:24.194Z,40
2017-03-16T08:26:32.966Z,40
2017-03-16T08:27:42.639Z,40
2017-03-16T08:28:51.394Z,45
2017-03-16T08:30:00.153Z,40
2017-03-16T08:31:09.221Z,40
2017-03-16T08:32:18.245Z,45
2017-03-16T08:33:27.238Z,45
2017-03-16T08:34:35.976Z,45
2017-03-16T08:35:45.047Z,45
2017-03-16T08:36:53.813Z,40
2017-03-16T08:38:02.874Z,45
2017-03-16T08:39:11.942Z,45
2017-03-16T08:40:21.001Z,45
2017-03-16T08:41:30.364Z,45
2017-03-16T08:42:39.673Z,45
2017-03-16T08:43:48.433Z,45
2017-03-16T08:44:57.497Z,45
2017-03-16T08:46:07.173Z,45
2017-03-16T08:47:15.935Z,45
2017-03-16T08:48:24.931Z,45
2017-03-16T08:49:33.639Z,45
2017-03-16T08:50:43.257Z,45
2017-03-16T08:51:52.634Z,45
2017-03-16T08:53:01.830Z,45
2017-03-16T08:54:10.694Z,45
2017-03-16T08:55:19.770Z,45
2017-03-16T08:56:28.533Z,45
2017-03-16T08:57:37.605Z,45
2017-03-16T08:58:46.697Z,45
2017-03-16T08:59:55.761Z,45
2017-03-16T09:01:04.513Z,45
2017-03-16T09:02:13.586Z,50
2017-03-16T09:03:22.336Z,50
2017-03-16T09:04:31.409Z,50
2017-03-16T09:05:40.404Z,50
2017-03-16T09:06:49.469Z,45
2017-03-16T09:07:58.544Z,45
2017-03-16T09:09:07.608Z,45
2017-03-16T09:10:16.363Z,45
2017-03-16T09:11:25.126Z,45
2017-03-16T09:12:33.881Z,45
2017-03-16T09:13:43.249Z,45
2017-03-16T09:14:52.307Z,45
2017-03-16T09:16:01.383Z,45
2017-03-16T09:17:11.051Z,50
2017-03-16T09:18:20.128Z,50
2017-03-16T09:19:29.126Z,50
2017-03-16T09:20:38.180Z,50
2017-03-16T09:21:47.247Z,50
2017-03-16T09:22:56.335Z,50
2017-03-16T09:24:05.397Z,50
2017-03-16T09:25:14.466Z,50
2017-03-16T09:26:24.131Z,50
2017-03-16T09:27:32.894Z,50
2017-03-16T09:28:41.651Z,50
2017-03-16T09:29:51.018Z,50
2017-03-16T09:31:00.079Z,50
2017-03-16T09:32:09.093Z,50
2017-03-16T09:33:17.849Z,50
2017-03-16T09:34:26.611Z,50
2017-03-16T09:35:35.299Z,55
2017-03-16T09:36:44.056Z,45
2017-03-16T09:37:52.813Z,55
2017-03-16T09:39:01.566Z,55
2017-03-16T09:40:10.325Z,55
2017-03-16T09:41:19.097Z,55
2017-03-16T09:42:27.861Z,55
2017-03-16T09:43:36.924Z,55
2017-03-16T09:44:46.194Z,55
2017-03-16T09:45:54.953Z,55
2017-03-16T09:47:03.648Z,55
2017-03-16T09:48:13.012Z,55
2017-03-16T09:49:22.008Z,55
2017-03-16T09:50:31.071Z,55
2017-03-16T09:51:39.837Z,60
2017-03-16T09:52:48.894Z,60
2017-03-16T09:53:57.884Z,60
2017-03-16T09:55:06.942Z,60
2017-03-16T09:56:15.709Z,60
2017-03-16T09:57:24.771Z,55
2017-03-16T09:58:33.536Z,55
2017-03-16T09:59:42.531Z,55
2017-03-16T10:00:51.596Z,55
2017-03-16T10:02:00.659Z,55
2017-03-16T10:03:09.422Z,55
2017-03-16T10:04:18.171Z,60
2017-03-16T10:05:26.926Z,60
2017-03-16T10:06:35.996Z,60
2017-03-16T10:07:44.993Z,60
2017-03-16T10:08:54.054Z,60
2017-03-16T10:10:03.115Z,60
2017-03-16T10:11:11.873Z,65
2017-03-16T10:12:20.640Z,65
2017-03-16T10:13:29.397Z,65
2017-03-16T10:14:38.165Z,65
2017-03-16T10:15:46.912Z,65
2017-03-16T10:16:55.665Z,65
2017-03-16T10:18:04.423Z,60
2017-03-16T10:19:13.189Z,60
2017-03-16T10:20:22.186Z,60
2017-03-16T10:21:31.551Z,60
2017-03-16T10:22:40.614Z,60
2017-03-16T10:23:49.369Z,60
2017-03-16T10:24:58.132Z,60
2017-03-16T10:26:07.202Z,60
2017-03-16T10:27:16.270Z,65
2017-03-16T10:28:25.032Z,60
2017-03-16T10:29:33.797Z,65
2017-03-16T10:30:42.862Z,60
2017-03-16T10:31:51.622Z,60
2017-03-16T10:33:00.985Z,60
2017-03-16T10:34:09.750Z,60
2017-03-16T10:35:18.511Z,60
2017-03-16T10:36:27.814Z,60
2017-03-16T10:37:36.567Z,60
2017-03-16T10:38:45.329Z,60
2017-03-16T10:39:54.523Z,60
2017-03-16T10:41:03.271Z,60
2017-03-16T10:42:11.969Z,55
2017-03-16T10:43:21.281Z,55
2017-03-16T10:44:30.038Z,60
2017-03-16T10:45:39.335Z,60
2017-03-16T10:46:48.702Z,60
2017-03-16T10:47:58.367Z,65
2017-03-16T10:49:07.059Z,65
2017-03-16T10:50:16.014Z,60
2017-03-16T10:51:25.077Z,60
2017-03-16T10:52:34.148Z,60
2017-03-16T10:53:43.239Z,55
2017-03-16T10:54:51.994Z,60
2017-03-16T10:56:00.758Z,55
2017-03-16T10:57:09.819Z,60
2017-03-16T10:58:18.584Z,60
2017-03-16T10:59:27.956Z,60
2017-03-16T11:00:36.917Z,60
2017-03-16T11:01:45.980Z,60
2017-03-16T11:02:54.753Z,60
2017-03-16T11:04:03.507Z,55
2017-03-16T11:05:12.261Z,55
2017-03-16T11:06:21.029Z,55
2017-03-16T11:07:30.095Z,55
2017-03-16T11:08:39.170Z,55
2017-03-16T11:09:47.927Z,55
2017-03-16T11:11:02.731Z,55
2017-03-16T11:12:11.690Z,55
2017-03-16T11:13:20.747Z,55
2017-03-16T11:14:29.756Z,50
2017-03-16T11:15:38.515Z,50
2017-03-16T11:16:47.576Z,55
2017-03-16T11:17:56.341Z,50
2017-03-16T11:19:05.114Z,50
2017-03-16T11:20:13.967Z,50
2017-03-16T11:21:24.744Z,50
2017-03-16T11:22:33.764Z,55
2017-03-16T11:23:43.134Z,55
2017-03-16T11:24:51.889Z,55
2017-03-16T11:26:01.266Z,55
2017-03-16T11:27:09.987Z,50
2017-03-16T11:28:19.360Z,45
2017-03-16T11:29:28.118Z,50
2017-03-16T11:30:37.184Z,50
2017-03-16T11:31:45.948Z,50
2017-03-16T11:32:54.912Z,50
2017-03-16T11:34:03.687Z,50
2017-03-16T11:35:13.053Z,50
2017-03-16T11:36:21.839Z,45
2017-03-16T11:37:30.614Z,50
2017-03-16T11:38:39.370Z,50
2017-03-16T11:39:48.138Z,50
2017-03-16T11:40:56.896Z,50
2017-03-16T11:42:06.262Z,50
2017-03-16T11:43:15.230Z,50
2017-03-16T11:44:23.993Z,50
2017-03-16T11:45:33.066Z,45
2017-03-16T11:46:41.813Z,45
2017-03-16T11:47:50.576Z,45
2017-03-16T11:48:59.641Z,45
2017-03-16T11:50:08.702Z,45
2017-03-16T11:51:17.468Z,45
2017-03-16T11:52:26.529Z,45
2017-03-16T11:53:35.493Z,45
2017-03-16T11:54:44.263Z,45
2017-03-16T11:55:53.319Z,40
2017-03-16T11:57:02.377Z,45
2017-03-16T11:58:11.445Z,45
2017-03-16T11:59:20.514Z,40
2017-03-16T12:00:29.276Z,40
2017-03-16T12:01:38.342Z,40
2017-03-16T12:02:47.098Z,40
2017-03-16T12:03:55.861Z,40
2017-03-16T12:05:04.869Z,40
2017-03-16T12:06:13.625Z,35
2017-03-16T12:07:22.320Z,35
2017-03-16T12:08:31.382Z,40
2017-03-16T12:09:40.449Z,40
2017-03-16T12:10:49.141Z,35
2017-03-16T12:11:57.908Z,35
2017-03-16T12:13:07.274Z,35
2017-03-16T12:14:16.037Z,35
2017-03-16T12:15:24.798Z,35
2017-03-16T12:16:33.564Z,40
2017-03-16T12:17:42.330Z,40
2017-03-16T12:18:51.395Z,40
2017-03-16T12:20:00.152Z,40
2017-03-16T12:21:09.222Z,40
2017-03-16T12:22:18.278Z,35
2017-03-16T12:23:27.334Z,35
2017-03-16T12:24:36.092Z,35
2017-03-16T12:25:45.388Z,35
2017-03-16T12:26:54.079Z,35
2017-03-16T12:28:02.828Z,35
2017-03-16T12:29:11.589Z,35
2017-03-16T12:30:20.583Z,35
2017-03-16T12:31:29.281Z,35
2017-03-16T12:32:38.640Z,35
2017-03-16T12:33:47.398Z,35
2017-03-16T12:34:56.156Z,35
2017-03-16T12:36:05.217Z,35
2017-03-16T12:37:14.215Z,30
2017-03-16T12:38:22.963Z,30
2017-03-16T12:39:31.960Z,30
2017-03-16T12:40:41.031Z,30
2017-03-16T12:41:49.793Z,30
2017-03-16T12:42:58.868Z,30
2017-03-16T12:44:07.923Z,30
2017-03-16T12:45:16.993Z,30
2017-03-16T12:46:25.749Z,30
2017-03-16T12:47:34.506Z,30
2017-03-16T12:48:43.262Z,30
2017-03-16T12:49:52.316Z,30
2017-03-16T12:51:01.378Z,30
2017-03-16T12:52:10.436Z,30
2017-03-16T12:53:19.198Z,30
2017-03-16T12:54:27.956Z,30
2017-03-16T12:55:37.031Z,30
2017-03-16T12:56:45.799Z,30
2017-03-16T12:57:54.856Z,30
2017-03-16T12:59:04.178Z,30
2017-03-16T13:00:13.292Z,30
2017-03-16T13:01:22.657Z,30
2017-03-16T13:02:31.421Z,30
2017-03-16T13:03:40.218Z,30
2017-03-16T13:04:49.578Z,30
2017-03-16T13:05:58.338Z,30
2017-03-16T13:07:07.091Z,30
2017-03-16T13:08:16.148Z,30
2017-03-16T13:09:25.214Z,30
2017-03-16T13:10:35.179Z,30
2017-03-16T13:11:44.240Z,30
2017-03-16T13:12:53.003Z,30
2017-03-16T13:14:01.992Z,30
2017-03-16T13:15:11.003Z,30
2017-03-16T13:16:20.069Z,30
2017-03-16T13:17:28.826Z,25
2017-03-16T13:18:37.586Z,25
2017-03-16T13:19:46.349Z,25
2017-03-16T13:20:55.667Z,25
2017-03-16T13:22:04.662Z,25
2017-03-16T13:23:17.649Z,25
2017-03-16T13:24:26.419Z,25
2017-03-16T13:25:35.179Z,25
2017-03-16T13:26:44.180Z,25
2017-03-16T13:27:52.939Z,25
2017-03-16T13:29:02.006Z,25
2017-03-16T13:30:11.872Z,25
2017-03-16T13:31:21.185Z,25
2017-03-16T13:32:29.951Z,25
2017-03-16T13:33:38.709Z,25
2017-03-16T13:34:47.466Z,25
2017-03-16T13:35:56.529Z,25
2017-03-16T13:37:05.594Z,25
2017-03-16T13:38:14.365Z,25
2017-03-16T13:39:23.432Z,25
2017-03-16T13:40:32.193Z,25
2017-03-16T13:41:41.517Z,25
2017-03-16T13:42:50.278Z,25
2017-03-16T13:43:59.339Z,25
2017-03-16T13:45:08.413Z,25
2017-03-16T13:46:17.178Z,25
2017-03-16T13:47:26.476Z,20
2017-03-16T13:48:35.228Z,20
2017-03-16T13:49:44.574Z,20
2017-03-16T13:50:53.946Z,20
2017-03-16T13:52:03.311Z,20
2017-03-16T13:53:12.065Z,20
2017-03-16T13:54:21.136Z,20
2017-03-16T13:55:30.204Z,20
2017-03-16T13:56:39.278Z,20
2017-03-16T13:57:48.043Z,20
2017-03-16T13:58:57.113Z,20
2017-03-16T14:00:05.879Z,20
2017-03-16T14:01:14.945Z,20
2017-03-16T14:02:23.953Z,20
2017-03-16T14:03:33.322Z,20
2017-03-16T14:04:42.317Z,20
2017-03-16T14:05:51.096Z,20
2017-03-16T14:07:00.160Z,20
2017-03-16T14:08:09.228Z,20
2017-03-16T14:09:18.226Z,20
2017-03-16T14:10:27.215Z,20
2017-03-16T14:11:35.978Z,20
2017-03-16T14:12:45.053Z,20
2017-03-16T14:13:54.051Z,20
2017-03-16T14:15:03.421Z,20
2017-03-16T14:16:12.494Z,20
2017-03-16T14:17:21.552Z,20
2017-03-16T14:18:30.309Z,20
2017-03-16T14:19:39.270Z,15
2017-03-16T14:20:48.337Z,15
2017-03-16T14:21:57.711Z,15
2017-03-16T14:23:06.480Z,15
2017-03-16T14:24:15.483Z,15
2017-03-16T14:25:24.170Z,15
2017-03-16T14:26:33.244Z,15
2017-03-16T14:27:42.316Z,15
2017-03-16T14:28:51.385Z,15
2017-03-16T14:30:00.578Z,15
2017-03-16T14:31:10.253Z,15
2017-03-16T14:32:19.623Z,15
2017-03-16T14:33:28.685Z,15
2017-03-16T14:34:37.680Z,15
2017-03-16T14:35:46.444Z,15
2017-03-16T14:36:56.128Z,15
2017-03-16T14:38:05.191Z,15
2017-03-16T14:39:13.950Z,15
2017-03-16T14:40:23.322Z,15
2017-03-16T14:41:32.217Z,15
2017-03-16T14:42:40.910Z,15
2017-03-16T14:43:49.598Z,15
2017-03-16T14:44:58.351Z,15
2017-03-16T14:46:07.650Z,15
2017-03-16T14:47:16.751Z,15
2017-03-16T14:48:26.133Z,15
2017-03-16T14:49:34.900Z,15
2017-03-16T14:50:44.278Z,15
2017-03-16T14:51:53.620Z,15
2017-03-16T14:53:02.313Z,15
2017-03-16T14:54:11.678Z,15
2017-03-16T14:55:20.443Z,10
2017-03-16T14:56:29.205Z,10
2017-03-16T14:57:38.503Z,10
2017-03-16T14:58:47.569Z,10
2017-03-16T14:59:56.567Z,10
2017-03-16T15:01:05.932Z,10
2017-03-16T15:02:14.700Z,10
2017-03-16T15:03:23.464Z,10
2017-03-16T15:04:32.231Z,10
2017-03-16T15:05:40.999Z,10
2017-03-16T15:06:49.769Z,10
2017-03-16T15:07:58.530Z,10
2017-03-16T15:09:07.600Z,10
2017-03-16T15:10:16.676Z,10
2017-03-16T15:11:25.455Z,10
2017-03-16T15:12:34.208Z,10
2017-03-16T15:13:42.969Z,10
2017-03-16T15:14:51.741Z,10
2017-03-16T15:16:00.802Z,10
2017-03-16T15:17:09.567Z,10
2017-03-16T15:18:18.629Z,10
2017-03-16T15:19:27.383Z,10
2017-03-16T15:20:36.141Z,10
2017-03-16T15:21:44.939Z,5
2017-03-16T15:22:53.998Z,5
2017-03-16T15:24:03.001Z,5
2017-03-16T15:25:12.068Z,5
2017-03-16T15:26:20.836Z,5
2017-03-16T15:27:29.600Z,5
2017-03-16T15:28:38.670Z,5
2017-03-16T15:29:47.738Z,5
2017-03-16T15:30:56.799Z,5
2017-03-16T15:32:05.491Z,5
2017-03-16T15:33:14.484Z,5
2017-03-16T15:34:23.541Z,5
2017-03-16T15:35:32.606Z,5
2017-03-16T15:36:41.366Z,5
2017-03-16T15:37:50.743Z,5
2017-03-16T15:38:59.536Z,5
2017-03-16T15:40:08.365Z,5
2017-03-16T15:41:17.125Z,5
2017-03-16T15:42:25.889Z,5
2017-03-16T15:43:34.951Z,5
2017-03-16T15:44:43.719Z,5
2017-03-16T15:45:52.795Z,5
2017-03-16T15:47:01.864Z,5
2017-03-16T15:48:10.628Z,5
2017-03-16T15:49:19.693Z,5
2017-03-16T15:50:28.454Z,5
2017-03-16T15:51:37.214Z,5
2017-03-16T15:52:45.982Z,5
2017-03-16T15:53:55.962Z,5
2017-03-16T15:55:05.034Z,5
2017-03-16T15:56:13.821Z,5
2017-03-16T15:57:22.582Z,5
2017-03-16T15:58:32.248Z,5
2017-03-16T15:59:41.639Z,5
2017-03-16T16:00:50.713Z,5
2017-03-16T16:01:59.774Z,5
2017-03-16T16:03:08.538Z,5
2017-03-16T16:04:18.215Z,5
2017-03-16T16:05:26.971Z,5
2017-03-16T16:06:36.041Z,5
2017-03-16T16:07:45.108Z,5
2017-03-16T16:08:54.491Z,5
2017-03-16T16:10:03.561Z,5
2017-03-16T16:11:13.022Z,5
2017-03-16T16:12:22.575Z,5
2017-03-16T16:13:31.640Z,5
2017-03-16T16:14:40.404Z,5
2017-03-16T16:15:49.095Z,5
2017-03-16T16:16:57.790Z,5
2017-03-16T16:18:06.553Z,5
2017-03-16T16:19:15.267Z,5
2017-03-16T16:20:24.038Z,5
2017-03-16T16:21:32.802Z,5
2017-03-16T16:22:41.996Z,5
2017-03-16T16:23:50.781Z,5
2017-03-16T16:24:59.545Z,5
2017-03-16T16:26:08.913Z,5
2017-03-16T16:27:17.916Z,5
2017-03-16T16:28:26.679Z,5
2017-03-16T16:29:35.437Z,5
2017-03-16T16:30:44.200Z,0
2017-03-16T16:31:52.897Z,0
2017-03-16T16:33:01.655Z,0
2017-03-16T16:34:10.347Z,0
2017-03-16T16:35:19.036Z,0
2017-03-16T16:36:28.639Z,0
2017-03-16T16:37:37.701Z,0
2017-03-16T16:38:46.463Z,0
2017-03-16T16:39:55.226Z,0